createdAt,value
2022-08-07T00:00:05.769Z,66.68
2022-08-07T00:03:01.846Z,66.34
2022-08-07T00:05:32.402Z,67.91
2022-08-07T00:08:08.050Z,67.36
2022-08-07T00:10:47.925Z,68.35
2022-08-07T00:13:27.195Z,68.16
2022-08-07T00:15:57.258Z,68.15
2022-08-07T00:18:28.895Z,67.95
2022-08-07T00:21:01.363Z,68.10
2022-08-07T00:23:34.441Z,67.81
2022-08-07T00:26:18.696Z,67.75
2022-08-07T00:28:56.955Z,69.29
2022-08-07T00:31:37.313Z,68.41
2022-08-07T00:34:09.424Z,70.46
2022-08-07T00:36:43.351Z,70.58
2022-08-07T00:39:16.700Z,71.32
2022-08-07T00:42:02.470Z,71.32
2022-08-07T00:44:35.471Z,71.00
2022-08-07T00:47:15.974Z,71.11
2022-08-07T00:50:20.812Z,70.02
2022-08-07T00:52:47.719Z,68.80
2022-08-07T00:55:25.525Z,69.63
2022-08-07T00:58:08.549Z,69.23
2022-08-07T01:00:38.206Z,69.40
2022-08-07T01:03:54.653Z,70.31
2022-08-07T01:06:13.331Z,68.91
2022-08-07T01:08:51.348Z,68.70
2022-08-07T01:12:09.270Z,69.49
2022-08-07T01:14:15.632Z,69.50
2022-08-07T01:16:47.230Z,69.11
2022-08-07T01:19:20.187Z,69.04
2022-08-07T01:21:55.950Z,68.90
2022-08-07T01:24:33.472Z,69.07
2022-08-07T01:27:05.461Z,70.86
2022-08-07T01:29:50.642Z,71.28
2022-08-07T01:32:22.278Z,71.15
2022-08-07T01:34:53.489Z,72.20
2022-08-07T01:37:24.693Z,72.86
2022-08-07T01:40:00.086Z,72.56
2022-08-07T01:42:39.394Z,72.26
2022-08-07T01:45:36.977Z,71.50
2022-08-07T01:48:21.064Z,70.38
2022-08-07T01:51:24.177Z,70.13
2022-08-07T01:54:11.611Z,71.34
2022-08-07T01:56:54.329Z,70.66
2022-08-07T01:59:31.131Z,71.53
2022-08-07T02:02:10.312Z,71.56
2022-08-07T02:04:52.547Z,71.77
2022-08-07T02:07:35.819Z,70.51
2022-08-07T02:10:18.828Z,71.45
2022-08-07T02:12:50.852Z,70.62
2022-08-07T02:15:29.062Z,70.47
2022-08-07T02:18:00.722Z,72.37
2022-08-07T02:20:33.280Z,70.94
2022-08-07T02:23:07.659Z,70.63
2022-08-07T02:26:26.743Z,69.83
2022-08-07T02:28:32.472Z,70.62
2022-08-07T02:31:18.882Z,71.31
2022-08-07T02:34:02.841Z,72.11
2022-08-07T02:36:34.315Z,72.18
2022-08-07T02:39:17.451Z,73.30
2022-08-07T02:42:10.338Z,73.12
2022-08-07T02:44:48.690Z,72.55
2022-08-07T02:47:48.840Z,72.40
2022-08-07T02:50:18.459Z,72.57
2022-08-07T02:53:03.534Z,73.01
2022-08-07T02:56:03.934Z,73.12
2022-08-07T02:58:36.362Z,71.67
2022-08-07T03:01:18.919Z,72.87
2022-08-07T03:04:03.444Z,73.06
2022-08-07T03:06:39.766Z,74.54
2022-08-07T03:09:11.160Z,73.84
2022-08-07T03:11:52.536Z,74.91
2022-08-07T03:14:32.018Z,73.95
2022-08-07T03:17:03.649Z,75.12
2022-08-07T03:19:37.065Z,75.22
2022-08-07T03:22:18.703Z,74.81
2022-08-07T03:24:50.455Z,75.36
2022-08-07T03:27:30.827Z,76.11
2022-08-07T03:30:14.501Z,76.42
2022-08-07T03:32:58.280Z,76.46
2022-08-07T03:35:43.927Z,75.19
2022-08-07T03:38:21.064Z,75.88
2022-08-07T03:40:53.934Z,76.64
2022-08-07T03:43:32.256Z,75.86
2022-08-07T03:46:10.557Z,76.34
2022-08-07T03:49:02.502Z,76.78
2022-08-07T03:51:47.057Z,75.88
2022-08-07T03:54:35.159Z,76.40
2022-08-07T03:58:34.045Z,75.40
2022-08-07T04:00:03.971Z,74.63
2022-08-07T04:02:47.504Z,76.02
2022-08-07T04:05:40.901Z,74.95
2022-08-07T04:08:21.336Z,75.53
2022-08-07T04:10:54.795Z,75.58
2022-08-07T04:14:10.268Z,75.78
2022-08-07T04:16:36.292Z,75.70
2022-08-07T04:19:12.757Z,74.63
2022-08-07T04:21:58.934Z,74.75
2022-08-07T04:24:34.292Z,75.07
2022-08-07T04:27:15.255Z,75.98
2022-08-07T04:30:02.261Z,74.97
2022-08-07T04:32:47.819Z,74.85
2022-08-07T04:35:20.502Z,75.50
2022-08-07T04:38:02.893Z,75.20
2022-08-07T04:40:34.184Z,74.85
2022-08-07T04:43:04.024Z,75.04
2022-08-07T04:46:01.277Z,75.95
2022-08-07T04:48:44.615Z,76.15
2022-08-07T04:51:27.621Z,76.28
2022-08-07T04:54:06.138Z,75.26
2022-08-07T04:58:12.862Z,76.36
2022-08-07T05:00:09.889Z,76.04
2022-08-07T05:02:43.534Z,75.90
2022-08-07T05:05:52.816Z,75.90
2022-08-07T05:08:58.937Z,75.02
2022-08-07T05:11:19.105Z,74.93
2022-08-07T05:14:53.679Z,75.06
2022-08-07T05:16:47.689Z,74.82
2022-08-07T05:19:43.981Z,75.71
2022-08-07T05:22:19.044Z,74.73
2022-08-07T05:25:01.280Z,74.90
2022-08-07T05:28:03.068Z,75.39
2022-08-07T05:30:30.099Z,74.77
2022-08-07T05:33:05.254Z,74.95
2022-08-07T05:35:41.827Z,75.23
2022-08-07T05:39:01.170Z,75.05
2022-08-07T05:41:14.226Z,74.57
2022-08-07T05:44:08.399Z,73.88
2022-08-07T05:46:41.490Z,74.17
2022-08-07T05:49:14.472Z,74.20
2022-08-07T05:51:48.058Z,73.81
2022-08-07T05:54:30.861Z,73.17
2022-08-07T05:57:16.227Z,73.09
2022-08-07T05:59:57.811Z,72.67
2022-08-07T06:02:34.278Z,72.79
2022-08-07T06:05:15.643Z,72.81
2022-08-07T06:08:14.960Z,72.20
2022-08-07T06:10:42.551Z,72.21
2022-08-07T06:13:15.552Z,71.75
2022-08-07T06:15:49.924Z,71.19
2022-08-07T06:18:25.203Z,71.11
2022-08-07T06:22:11.772Z,71.00
2022-08-07T06:24:46.257Z,70.60
2022-08-07T06:26:40.007Z,70.36
2022-08-07T06:29:13.563Z,70.47
2022-08-07T06:31:49.639Z,70.26
2022-08-07T06:34:24.495Z,69.53
2022-08-07T06:36:59.428Z,69.40
2022-08-07T06:40:15.818Z,69.30
2022-08-07T06:42:34.996Z,69.44
2022-08-07T06:45:18.916Z,68.99
2022-08-07T06:47:58.466Z,68.70
2022-08-07T06:50:43.319Z,68.45
2022-08-07T06:55:28.773Z,68.23
2022-08-07T06:56:15.126Z,68.00
2022-08-07T07:00:13.058Z,68.04
2022-08-07T07:01:50.986Z,67.83
2022-08-07T07:04:27.929Z,67.65
2022-08-07T07:07:10.766Z,67.72
2022-08-07T07:09:53.322Z,67.61
2022-08-07T07:12:33.692Z,67.31
2022-08-07T07:15:08.961Z,65.19
2022-08-07T07:18:00.037Z,65.71
2022-08-07T07:20:35.706Z,65.21
2022-08-07T07:24:11.034Z,64.19
2022-08-07T07:26:34.684Z,63.91
2022-08-07T07:29:40.434Z,63.80
2022-08-07T07:31:49.396Z,62.65
2022-08-07T07:34:29.221Z,62.31
2022-08-07T07:37:14.472Z,62.73
2022-08-07T07:39:55.675Z,60.87
2022-08-07T07:42:32.858Z,61.34
2022-08-07T07:45:04.784Z,61.07
2022-08-07T07:47:43.007Z,60.09
2022-08-07T07:50:35.718Z,59.62
2022-08-07T07:53:20.756Z,59.13
2022-08-07T07:55:57.890Z,59.84
2022-08-07T07:58:40.316Z,59.76
2022-08-07T08:02:01.775Z,59.40
2022-08-07T08:04:11.127Z,58.39
2022-08-07T08:06:45.142Z,57.42
2022-08-07T08:09:23.206Z,57.28
2022-08-07T08:12:02.471Z,57.29
2022-08-07T08:14:34.159Z,57.22
2022-08-07T08:17:56.521Z,55.21
2022-08-07T08:20:18.993Z,55.96
2022-08-07T08:23:14.301Z,55.97
2022-08-07T08:26:06.991Z,56.03
2022-08-07T08:28:43.316Z,55.44
2022-08-07T08:31:30.284Z,54.83
2022-08-07T08:34:19.033Z,53.87
2022-08-07T08:36:58.854Z,53.39
2022-08-07T08:39:39.874Z,53.79
2022-08-07T08:42:27.031Z,54.08
2022-08-07T08:45:06.885Z,53.55
2022-08-07T08:47:57.299Z,51.36
2022-08-07T08:50:39.264Z,52.00
2022-08-07T08:53:19.733Z,52.03
2022-08-07T08:55:58.885Z,52.60
2022-08-07T08:58:41.617Z,52.90
2022-08-07T09:01:18.610Z,51.76
2022-08-07T09:04:00.416Z,52.07
2022-08-07T09:06:42.801Z,52.05
2022-08-07T09:09:39.080Z,51.45
2022-08-07T09:12:20.084Z,51.04
2022-08-07T09:16:24.457Z,51.21
2022-08-07T09:18:28.502Z,49.46
2022-08-07T09:21:13.906Z,50.85
2022-08-07T09:24:31.728Z,50.49
2022-08-07T09:27:09.114Z,50.70
2022-08-07T09:30:03.181Z,49.70
2022-08-07T09:33:16.275Z,50.35
2022-08-07T09:36:05.062Z,50.21
2022-08-07T09:38:50.138Z,50.07
2022-08-07T09:41:36.406Z,49.15
2022-08-07T09:44:33.040Z,50.01
2022-08-07T09:47:56.240Z,49.10
2022-08-07T09:50:31.197Z,49.28
2022-08-07T09:53:04.031Z,49.70
2022-08-07T09:56:04.112Z,49.82
2022-08-07T09:58:58.861Z,49.56
2022-08-07T10:01:51.276Z,49.58
2022-08-07T10:05:12.737Z,49.48
2022-08-07T10:08:01.031Z,49.67
2022-08-07T10:11:16.302Z,49.68
2022-08-07T10:13:54.845Z,49.24
2022-08-07T10:16:43.244Z,49.54
2022-08-07T10:19:50.143Z,49.01
2022-08-07T10:22:39.611Z,48.93
2022-08-07T10:25:42.771Z,49.43
2022-08-07T10:28:49.390Z,49.30
2022-08-07T10:31:49.584Z,49.03
2022-08-07T10:34:32.618Z,48.98
2022-08-07T10:37:15.300Z,48.11
2022-08-07T10:40:06.181Z,48.10
2022-08-07T10:42:42.308Z,47.81
2022-08-07T10:45:44.389Z,47.95
2022-08-07T10:48:36.245Z,47.56
2022-08-07T10:51:16.675Z,47.60
2022-08-07T10:54:11.818Z,47.07
2022-08-07T10:56:55.430Z,47.56
2022-08-07T10:59:37.449Z,47.90
2022-08-07T11:02:32.909Z,47.95
2022-08-07T11:05:15.067Z,48.22
2022-08-07T11:07:59.366Z,48.06
2022-08-07T11:10:43.811Z,48.38
2022-08-07T11:14:43.717Z,48.91
2022-08-07T11:16:21.904Z,49.68
2022-08-07T11:19:06.989Z,50.16
2022-08-07T11:21:43.889Z,50.57
2022-08-07T11:24:23.211Z,51.20
2022-08-07T11:27:00.470Z,51.28
2022-08-07T11:29:42.229Z,51.48
2022-08-07T11:32:25.951Z,51.53
2022-08-07T11:34:59.751Z,51.95
2022-08-07T11:37:58.164Z,52.27
2022-08-07T11:40:50.590Z,52.48
2022-08-07T11:43:41.473Z,52.46
2022-08-07T11:46:36.711Z,52.67
2022-08-07T11:50:18.827Z,52.61
2022-08-07T11:52:46.988Z,52.83
2022-08-07T11:56:26.004Z,52.63
2022-08-07T11:58:33.377Z,52.68
2022-08-07T12:01:20.230Z,52.58
2022-08-07T12:04:24.773Z,52.38
2022-08-07T12:07:07.991Z,52.50
2022-08-07T12:09:55.793Z,52.01
2022-08-07T12:12:29.836Z,51.81
2022-08-07T12:15:03.723Z,51.64
2022-08-07T12:17:59.280Z,51.58
2022-08-07T12:20:37.056Z,51.32
2022-08-07T12:23:21.556Z,50.55
2022-08-07T12:26:28.987Z,50.74
2022-08-07T12:29:08.576Z,50.00
2022-08-07T12:32:01.509Z,49.22
2022-08-07T12:34:37.126Z,49.63
2022-08-07T12:37:22.921Z,49.40
2022-08-07T12:39:57.315Z,49.25
2022-08-07T12:42:32.078Z,49.74
2022-08-07T12:45:07.550Z,50.08
2022-08-07T12:47:50.811Z,50.36
2022-08-07T12:50:39.509Z,50.50
2022-08-07T12:53:27.638Z,50.91
2022-08-07T12:56:04.227Z,50.94
2022-08-07T12:58:43.988Z,50.88
2022-08-07T13:01:32.386Z,51.41
2022-08-07T13:04:49.138Z,51.36
2022-08-07T13:08:13.771Z,51.69
2022-08-07T13:11:01.448Z,51.63
2022-08-07T13:13:53.814Z,51.56
2022-08-07T13:16:43.599Z,51.92
2022-08-07T13:19:46.153Z,51.60
2022-08-07T13:22:36.036Z,51.82
2022-08-07T13:25:31.777Z,51.81
2022-08-07T13:28:14.219Z,51.84
2022-08-07T13:31:06.422Z,51.99
2022-08-07T13:34:32.787Z,52.25
2022-08-07T13:37:04.294Z,52.28
2022-08-07T13:40:36.339Z,52.62
2022-08-07T13:43:17.870Z,52.57
2022-08-07T13:46:11.254Z,52.45
2022-08-07T13:48:58.628Z,52.67
2022-08-07T13:52:05.440Z,52.38
2022-08-07T13:54:28.850Z,52.21
2022-08-07T13:57:08.595Z,51.87
2022-08-07T13:59:45.552Z,51.78
2022-08-07T14:02:29.743Z,51.61
2022-08-07T14:05:07.026Z,51.88
2022-08-07T14:08:00.902Z,52.17
2022-08-07T14:10:42.058Z,52.04
2022-08-07T14:13:17.867Z,51.85
2022-08-07T14:15:57.025Z,51.94
2022-08-07T14:18:33.189Z,52.13
2022-08-07T14:21:20.737Z,52.24
2022-08-07T14:24:03.794Z,52.43
2022-08-07T14:26:40.528Z,52.39
2022-08-07T14:30:02.829Z,52.40
2022-08-07T14:32:19.922Z,52.74
2022-08-07T14:34:52.547Z,52.71
2022-08-07T14:37:36.206Z,52.63
2022-08-07T14:40:27.108Z,52.70
2022-08-07T14:43:58.071Z,52.96
2022-08-07T14:45:54.669Z,53.29
2022-08-07T14:48:36.988Z,53.46
2022-08-07T14:51:15.577Z,53.51
2022-08-07T14:54:09.791Z,53.19
2022-08-07T14:56:43.613Z,53.13
2022-08-07T15:02:31.917Z,53.02
2022-08-07T15:05:20.175Z,52.86
2022-08-07T15:07:55.076Z,52.95
2022-08-07T15:13:22.473Z,52.69
2022-08-07T15:16:04.664Z,52.91
2022-08-07T15:18:45.307Z,53.06
2022-08-07T15:21:44.268Z,52.87
2022-08-07T15:25:15.718Z,52.96
2022-08-07T15:27:11.301Z,52.72
2022-08-07T15:36:01.228Z,52.58
2022-08-07T15:38:29.904Z,52.52
2022-08-07T15:44:02.672Z,52.65
2022-08-07T15:50:04.422Z,52.44
2022-08-07T15:52:30.069Z,52.69
2022-08-07T15:55:08.864Z,52.59
2022-08-07T15:57:47.772Z,52.79
2022-08-07T16:00:31.825Z,53.23
2022-08-07T16:03:20.534Z,53.41
2022-08-07T16:05:53.336Z,53.53
2022-08-07T16:08:31.978Z,53.58
2022-08-07T16:11:28.643Z,53.38
2022-08-07T16:14:03.357Z,53.56
2022-08-07T16:16:57.542Z,53.80
2022-08-07T16:20:01.128Z,53.92
2022-08-07T16:22:55.218Z,54.13
2022-08-07T16:25:54.380Z,54.14
2022-08-07T16:30:07.484Z,54.69
2022-08-07T16:31:57.742Z,54.65
2022-08-07T16:34:48.588Z,54.82
2022-08-07T16:38:04.709Z,54.84
2022-08-07T16:41:02.679Z,55.25
2022-08-07T16:44:31.722Z,55.30
2022-08-07T16:47:45.390Z,55.31
2022-08-07T16:50:48.210Z,55.27
2022-08-07T16:54:06.630Z,55.51
2022-08-07T16:56:56.782Z,55.71
2022-08-07T16:59:47.091Z,55.69
2022-08-07T17:02:52.249Z,55.74
2022-08-07T17:06:28.566Z,55.86
2022-08-07T17:09:08.737Z,56.20
2022-08-07T17:12:04.914Z,56.08
2022-08-07T17:14:44.870Z,56.44
2022-08-07T17:17:44.068Z,56.32
2022-08-07T17:20:29.727Z,56.27
2022-08-07T17:23:08.753Z,56.56
2022-08-07T17:25:54.905Z,56.51
2022-08-07T17:28:34.457Z,56.62
2022-08-07T17:31:15.985Z,56.52
2022-08-07T17:34:15.377Z,56.33
2022-08-07T17:36:59.908Z,56.72
2022-08-07T17:39:57.654Z,56.83
2022-08-07T17:42:58.110Z,56.81
2022-08-07T17:45:34.894Z,56.99
2022-08-07T17:48:12.815Z,57.08
2022-08-07T17:50:54.247Z,57.20
2022-08-07T17:54:01.436Z,57.18
2022-08-07T17:56:29.875Z,57.29
2022-08-07T17:59:10.762Z,57.36
2022-08-07T18:01:51.546Z,57.51
2022-08-07T18:04:35.079Z,57.62
2022-08-07T18:07:28.543Z,57.64
2022-08-07T18:10:32.126Z,57.68
2022-08-07T18:13:28.152Z,57.84
2022-08-07T18:16:30.792Z,57.98
2022-08-07T18:21:09.846Z,58.04
2022-08-07T18:22:27.137Z,58.10
2022-08-07T18:25:19.088Z,58.19
2022-08-07T18:28:36.016Z,58.23
2022-08-07T18:31:14.123Z,58.27
2022-08-07T18:34:34.838Z,58.48
2022-08-07T18:38:56.987Z,58.44
2022-08-07T18:40:56.175Z,58.73
2022-08-07T18:43:49.583Z,58.83
2022-08-07T18:46:29.683Z,59.09
2022-08-07T18:50:19.686Z,59.31
2022-08-07T18:52:40.996Z,59.35
2022-08-07T18:55:40.761Z,59.62
2022-08-07T18:58:40.383Z,59.87
2022-08-07T19:02:18.036Z,59.87
2022-08-07T19:04:39.666Z,60.27
2022-08-07T19:07:34.934Z,60.34
2022-08-07T19:10:18.525Z,60.47
2022-08-07T19:13:10.185Z,60.62
2022-08-07T19:17:01.106Z,60.66
2022-08-07T19:19:17.740Z,60.93
2022-08-07T19:22:11.320Z,61.23
2022-08-07T19:24:49.883Z,61.24
2022-08-07T19:29:02.924Z,61.54
2022-08-07T19:30:58.757Z,61.43
2022-08-07T19:33:13.190Z,61.73
2022-08-07T19:35:56.584Z,61.89
2022-08-07T19:38:33.177Z,61.85
2022-08-07T19:41:12.578Z,62.22
2022-08-07T19:44:04.250Z,62.31
2022-08-07T19:46:57.716Z,62.36
2022-08-07T19:49:56.751Z,62.29
2022-08-07T19:52:28.672Z,62.43
2022-08-07T19:54:59.847Z,62.73
2022-08-07T19:58:01.975Z,62.95
2022-08-07T20:00:29.855Z,63.16
2022-08-07T20:03:04.870Z,63.59
2022-08-07T20:06:02.215Z,63.71
2022-08-07T20:08:34.509Z,63.90
2022-08-07T20:11:10.193Z,63.53
2022-08-07T20:13:44.582Z,63.75
2022-08-07T20:16:31.970Z,64.29
2022-08-07T20:19:09.940Z,63.90
2022-08-07T20:21:47.295Z,64.74
2022-08-07T20:24:22.039Z,65.49
2022-08-07T20:26:54.839Z,65.15
2022-08-07T20:29:48.240Z,64.64
2022-08-07T20:32:25.535Z,65.32
2022-08-07T20:34:58.628Z,64.80
2022-08-07T20:37:33.968Z,65.33
2022-08-07T20:40:32.407Z,65.18
2022-08-07T20:42:59.498Z,66.42
2022-08-07T20:46:27.696Z,66.21
2022-08-07T20:48:29.993Z,66.86
2022-08-07T20:51:02.298Z,66.46
2022-08-07T20:54:03.880Z,66.12
2022-08-07T20:56:30.259Z,65.90
2022-08-07T20:59:05.316Z,67.07
2022-08-07T21:01:45.866Z,66.89
2022-08-07T21:04:30.015Z,67.79
2022-08-07T21:07:14.509Z,67.76
2022-08-07T21:09:52.920Z,68.37
2022-08-07T21:12:34.882Z,68.81
2022-08-07T21:15:09.277Z,68.97
2022-08-07T21:18:02.190Z,69.70
2022-08-07T21:20:36.416Z,68.90
2022-08-07T21:23:15.444Z,69.17
2022-08-07T21:26:04.909Z,69.25
2022-08-07T21:28:48.981Z,69.75
2022-08-07T21:32:42.938Z,70.43
2022-08-07T21:34:35.165Z,70.86
2022-08-07T21:37:26.506Z,70.76
2022-08-07T21:40:23.300Z,71.33
2022-08-07T21:43:00.674Z,71.53
2022-08-07T21:46:04.707Z,71.74
2022-08-07T21:48:33.520Z,71.62
2022-08-07T21:51:20.102Z,71.88
2022-08-07T21:53:59.953Z,72.42
2022-08-07T21:56:47.134Z,72.36
2022-08-07T22:00:02.741Z,72.70
2022-08-07T22:02:35.151Z,71.39
2022-08-07T22:05:07.318Z,71.49
2022-08-07T22:07:59.004Z,71.37
2022-08-07T22:10:33.751Z,71.90
2022-08-07T22:13:09.294Z,72.30
2022-08-07T22:16:38.800Z,72.40
2022-08-07T22:18:43.244Z,72.56
2022-08-07T22:21:19.195Z,72.57
2022-08-07T22:23:58.167Z,72.60
2022-08-07T22:26:44.187Z,73.31
2022-08-07T22:29:34.027Z,73.03
2022-08-07T22:32:20.138Z,73.29
2022-08-07T22:34:55.486Z,73.23
2022-08-07T22:38:04.460Z,73.34
2022-08-07T22:40:30.829Z,73.19
2022-08-07T22:43:08.282Z,73.36
2022-08-07T22:46:21.341Z,73.70
2022-08-07T22:49:01.444Z,73.59
2022-08-07T22:52:19.635Z,73.32
2022-08-07T22:55:30.365Z,73.86
2022-08-07T22:58:16.751Z,73.62
2022-08-07T23:00:59.148Z,72.46
2022-08-07T23:03:57.994Z,73.33
2022-08-07T23:06:54.919Z,73.45
2022-08-07T23:10:03.811Z,72.55
2022-08-07T23:12:38.363Z,73.51
2022-08-07T23:15:22.104Z,73.43
2022-08-07T23:18:18.376Z,74.00
2022-08-07T23:21:09.492Z,73.24
2022-08-07T23:24:05.740Z,73.80
2022-08-07T23:26:54.903Z,72.87
2022-08-07T23:30:38.708Z,72.74
2022-08-07T23:34:35.190Z,73.80
2022-08-07T23:36:03.987Z,74.73
2022-08-07T23:38:42.718Z,74.92
2022-08-07T23:41:33.883Z,75.81
2022-08-07T23:44:35.766Z,76.27
2022-08-07T23:47:24.052Z,76.48
2022-08-07T23:50:22.865Z,76.27
2022-08-07T23:53:08.447Z,76.37
2022-08-07T23:55:57.980Z,77.13
2022-08-07T23:58:38.995Z,77.10
